Time;durP1;ratioP1;P1;durP2;ratioP2;P2;SDS_P1;SDS_P2;PMS_P1;PMS_P2;Temp;Humidity;BMP_temperature;BMP_pressure;BME280_temperature;BME280_humidity;BME280_pressure;Samples;Min_cycle;Max_cycle;Signal;HPM_P1;HPM_P2
2023/10/08 00:01:16;;;;;;;226.30;216.98;;;;;;;20.78;57.32;102219.00;5034655;28;20030;-73
2023/10/08 00:03:51;;;;;;;228.98;219.48;;;;;;;20.77;57.74;102217.38;5019266;28;20056;-71
2023/10/08 00:06:21;;;;;;;228.52;219.35;;;;;;;20.75;57.62;102226.69;5037139;28;20037;-72
2023/10/08 00:08:47;;;;;;;227.95;218.90;;;;;;;20.74;57.56;102218.75;5047970;28;20040;-71
2023/10/08 00:11:15;;;;;;;228.45;219.13;;;;;;;20.73;57.91;102217.91;5024604;28;20036;-72
2023/10/08 00:13:41;;;;;;;226.57;217.55;;;;;;;20.72;57.97;102213.50;5020751;28;20037;-72
2023/10/08 00:16:15;;;;;;;230.95;221.55;;;;;;;20.71;57.40;102213.78;5026262;28;20101;-71
2023/10/08 00:18:42;;;;;;;237.00;226.82;;;;;;;20.69;57.83;102222.31;5020684;28;20033;-71
2023/10/08 00:23:41;;;;;;;228.75;218.90;;;;;;;20.67;57.52;102226.44;5041447;28;20540;-71
2023/10/08 00:26:07;;;;;;;228.45;219.40;;;;;;;20.66;57.98;102242.09;5021127;28;20132;-71
2023/10/08 00:28:33;;;;;;;226.75;217.60;;;;;;;20.66;57.79;102243.97;5014896;28;20609;-71
2023/10/08 00:31:06;;;;;;;228.70;218.95;;;;;;;20.65;57.73;102236.84;5018924;28;20478;-71
2023/10/08 00:33:31;;;;;;;220.52;211.75;;;;;;;20.63;57.68;102242.59;5030005;28;20024;-73
2023/10/08 00:35:57;;;;;;;221.95;212.95;;;;;;;20.61;57.52;102236.56;5023673;28;20390;-71
2023/10/08 00:38:25;;;;;;;219.88;210.68;;;;;;;20.59;57.71;102236.03;5026841;28;20105;-70
2023/10/08 00:40:55;;;;;;;223.20;214.10;;;;;;;20.58;57.67;102242.59;5032389;28;20038;-71
2023/10/08 00:43:35;;;;;;;225.23;216.15;;;;;;;20.56;57.70;102242.06;5028823;28;20125;-72
2023/10/08 00:46:06;;;;;;;220.88;211.80;;;;;;;20.56;57.59;102243.97;5028125;28;20058;-70
2023/10/08 00:48:36;;;;;;;220.95;211.98;;;;;;;20.53;58.04;102240.66;5029040;28;20032;-73
2023/10/08 00:51:16;;;;;;;222.18;213.20;;;;;;;20.53;57.89;102228.84;5028704;28;20153;-71
2023/10/08 00:53:44;;;;;;;224.10;214.10;;;;;;;20.50;57.57;102241.19;5030415;28;20037;-71
2023/10/08 00:56:14;;;;;;;218.73;209.93;;;;;;;20.49;57.66;102239.56;5024808;28;20088;-71
2023/10/08 00:58:41;;;;;;;222.90;213.48;;;;;;;20.48;57.96;102237.91;5032653;28;20037;-71
2023/10/08 01:01:10;;;;;;;220.10;210.65;;;;;;;20.47;57.47;102236.25;5027071;28;20049;-71
2023/10/08 01:03:36;;;;;;;221.60;212.52;;;;;;;20.47;58.07;102227.22;5036431;28;20041;-71
2023/10/08 01:06:03;;;;;;;219.52;210.23;;;;;;;20.45;57.67;102216.50;5034745;28;20488;-71
2023/10/08 01:08:38;;;;;;;223.88;214.18;;;;;;;20.45;57.84;102223.91;5034486;28;20405;-71
2023/10/08 01:11:17;;;;;;;216.75;208.07;;;;;;;20.43;57.36;102226.09;5011797;28;20060;-71
2023/10/08 01:13:45;;;;;;;220.65;211.63;;;;;;;20.42;57.52;102227.22;5029361;28;20038;-71
2023/10/08 01:16:11;;;;;;;219.27;210.38;;;;;;;20.41;57.47;102225.53;5025121;28;20397;-71
2023/10/08 01:18:37;;;;;;;221.95;213.13;;;;;;;20.39;57.63;102211.28;5026010;28;20034;-71
2023/10/08 01:21:11;;;;;;;219.88;210.80;;;;;;;20.39;57.39;102208.56;5025712;28;20038;-71
2023/10/08 01:23:38;;;;;;;217.07;208.18;;;;;;;20.38;57.41;102195.91;5034580;28;20029;-71
2023/10/08 01:26:14;;;;;;;227.63;218.18;;;;;;;20.36;57.49;102198.94;5026922;28;20113;-71
2023/10/08 01:28:40;;;;;;;219.82;210.63;;;;;;;20.34;57.85;102200.31;5029744;28;20063;-71
2023/10/08 01:31:07;;;;;;;217.73;208.90;;;;;;;20.32;57.39;102206.88;5019602;28;20041;-71
2023/10/08 01:33:46;;;;;;;220.73;211.88;;;;;;;20.31;57.26;102204.44;5033243;28;20370;-71
2023/10/08 01:36:12;;;;;;;218.88;209.93;;;;;;;20.30;57.54;102192.59;5029270;28;20116;-71
2023/10/08 01:38:38;;;;;;;215.63;206.68;;;;;;;20.29;57.67;102201.94;5024601;28;20037;-71
2023/10/08 01:41:18;;;;;;;217.57;208.52;;;;;;;20.28;57.60;102199.47;5042942;28;20124;-71
2023/10/08 01:43:44;;;;;;;219.10;210.05;;;;;;;20.27;57.83;102203.31;5023729;28;20038;-70
2023/10/08 01:46:11;;;;;;;217.07;208.52;;;;;;;20.25;57.37;102211.81;5023557;28;20354;-72
2023/10/08 01:48:41;;;;;;;221.07;211.90;;;;;;;20.24;57.80;102212.09;5021324;28;20452;-73
2023/10/08 01:51:11;;;;;;;215.18;206.60;;;;;;;20.23;57.44;102214.00;5024547;28;20084;-73
2023/10/08 01:53:41;;;;;;;214.30;205.65;;;;;;;20.21;57.69;102221.69;5029942;28;20038;-73
2023/10/08 01:56:06;;;;;;;216.10;207.20;;;;;;;20.20;57.44;102221.94;5025529;28;20441;-73
2023/10/08 01:58:35;;;;;;;216.52;207.73;;;;;;;20.20;57.67;102230.19;5015190;28;20065;-72
2023/10/08 02:01:00;;;;;;;213.00;204.10;;;;;;;20.19;57.60;102236.78;5025370;28;20089;-72
2023/10/08 02:03:27;;;;;;;215.20;206.27;;;;;;;20.18;57.36;102232.38;5031307;28;20767;-72
2023/10/08 02:05:53;;;;;;;212.55;203.85;;;;;;;20.16;57.73;102235.41;5030495;28;20482;-72
2023/10/08 02:08:19;;;;;;;212.27;203.07;;;;;;;20.16;57.39;102238.16;5014833;28;20104;-72
2023/10/08 02:10:47;;;;;;;213.38;204.75;;;;;;;20.15;57.68;102243.91;5024584;28;20034;-72
2023/10/08 02:13:13;;;;;;;211.85;203.02;;;;;;;20.14;57.42;102234.03;5032358;28;20381;-72
2023/10/08 02:15:52;;;;;;;209.05;200.43;;;;;;;20.13;57.68;102232.34;5026704;28;20493;-72
2023/10/08 02:18:18;;;;;;;211.70;203.00;;;;;;;20.12;57.26;102233.47;5019920;28;20029;-72
2023/10/08 02:20:44;;;;;;;208.43;199.68;;;;;;;20.10;57.28;102231.81;5032819;28;20037;-72
2023/10/08 02:23:13;;;;;;;214.18;204.65;;;;;;;20.09;57.71;102230.16;5033840;28;20045;-71
2023/10/08 02:25:39;;;;;;;;;;;;;;;20.08;57.71;102230.41;5020193;28;20425;-72
2023/10/08 02:28:08;;;;;;;205.68;197.27;;;;;;;20.06;57.49;102233.47;5032168;28;19917;-72
2023/10/08 02:30:34;;;;;;;205.43;196.68;;;;;;;20.04;57.76;102235.63;5042739;28;20571;-72
2023/10/08 02:32:59;;;;;;;204.75;196.20;;;;;;;20.04;57.72;102229.34;5035328;28;20112;-72
2023/10/08 02:35:26;;;;;;;209.02;200.02;;;;;;;20.04;57.61;102234.81;5036329;28;20252;-72
2023/10/08 02:37:54;;;;;;;208.88;200.15;;;;;;;20.02;57.67;102228.78;5038228;28;20037;-72
2023/10/08 02:40:26;;;;;;;213.20;204.17;;;;;;;20.02;57.35;102247.97;5028283;28;20124;-72
2023/10/08 02:42:58;;;;;;;203.43;194.98;;;;;;;20.01;57.37;102252.63;5034324;28;20397;-72
2023/10/08 02:45:28;;;;;;;210.02;201.38;;;;;;;20.01;57.81;102252.63;5031234;28;20033;-71
2023/10/08 02:47:54;;;;;;;206.43;197.85;;;;;;;20.00;57.61;102247.41;5031263;28;20108;-72
2023/10/08 02:50:22;;;;;;;205.30;196.88;;;;;;;19.99;57.73;102254.00;5031368;28;20044;-72
2023/10/08 02:52:50;;;;;;;209.27;200.55;;;;;;;19.98;57.49;102255.94;5036543;28;20032;-72
2023/10/08 02:55:34;;;;;;;214.30;205.40;;;;;;;19.97;57.25;102251.53;5030735;28;20060;-71
2023/10/08 02:58:01;;;;;;;206.93;197.88;;;;;;;19.97;57.72;102256.19;5029289;28;20116;-72
2023/10/08 03:00:29;;;;;;;206.82;197.82;;;;;;;19.96;57.57;102249.03;5019725;28;20022;-71
2023/10/08 03:02:57;;;;;;;206.63;198.02;;;;;;;19.95;57.31;102247.41;5026329;28;20034;-71
2023/10/08 03:05:22;;;;;;;207.15;198.43;;;;;;;19.94;57.35;102249.31;5038371;28;20053;-71
2023/10/08 03:07:51;;;;;;;213.48;203.63;;;;;;;19.93;57.75;102247.66;5031564;28;20323;-72
2023/10/08 03:10:19;;;;;;;203.80;195.45;;;;;;;19.93;57.21;102246.84;5034965;28;20030;-71
2023/10/08 03:12:46;;;;;;;204.90;196.60;;;;;;;19.91;57.69;102255.34;5041902;28;20068;-72
2023/10/08 03:15:15;;;;;;;210.63;201.93;;;;;;;19.89;57.65;102263.84;5029963;28;20040;-72
2023/10/08 03:17:48;;;;;;;212.05;203.45;;;;;;;19.89;57.25;102255.59;5032706;28;20033;-72
2023/10/08 03:22:58;;;;;;;205.43;196.88;;;;;;;19.86;57.26;102266.31;5036272;28;20485;-72
2023/10/08 03:25:26;;;;;;;203.25;194.40;;;;;;;19.84;57.39;102274.78;5036913;28;20040;-71
2023/10/08 03:27:54;;;;;;;208.55;200.07;;;;;;;19.82;57.43;102274.22;5038719;28;20065;-72
2023/10/08 03:30:19;;;;;;;207.43;199.00;;;;;;;19.82;57.40;102271.47;5036076;28;20033;-71
2023/10/08 03:32:45;;;;;;;208.18;198.57;;;;;;;19.81;57.71;102271.75;5038881;28;20110;-71
2023/10/08 03:35:11;;;;;;;204.90;196.48;;;;;;;19.80;57.90;102267.34;5032709;28;20523;-72
2023/10/08 03:37:41;;;;;;;208.20;199.48;;;;;;;19.78;57.34;102273.13;5043222;28;20083;-72
2023/10/08 03:40:25;;;;;;;205.43;197.02;;;;;;;19.77;57.50;102263.22;5026100;28;20034;-72
2023/10/08 03:42:51;;;;;;;207.70;199.27;;;;;;;19.77;57.87;102273.38;5025094;28;20092;-72
2023/10/08 03:45:48;;;;;;;203.38;194.93;;;;;;;19.76;57.87;102274.50;5028868;28;20037;-72
2023/10/08 03:48:06;;;;;;;206.15;197.52;;;;;;;19.74;57.58;102279.41;5023694;28;20057;-72
2023/10/08 03:50:42;;;;;;;208.02;199.73;;;;;;;19.73;57.89;102270.38;5030860;28;20033;-72
2023/10/08 03:53:11;;;;;;;198.35;190.13;;;;;;;19.70;57.86;102265.38;5016005;28;20056;-72
2023/10/08 03:55:40;;;;;;;205.27;196.98;;;;;;;19.70;57.65;102264.56;5020995;28;20524;-72
2023/10/08 03:58:29;;;;;;;203.20;194.57;;;;;;;19.67;58.06;102253.03;5030504;28;20497;-72
2023/10/08 04:01:08;;;;;;;204.65;196.18;;;;;;;19.66;57.65;102254.13;5012264;28;20026;-72
2023/10/08 04:06:28;;;;;;;200.27;191.68;;;;;;;19.64;57.95;102260.97;5020353;28;20045;-72
2023/10/08 04:11:49;;;;;;;199.00;190.80;;;;;;;19.61;57.66;102291.66;5024382;28;20103;-72
2023/10/08 04:14:18;;;;;;;199.80;191.50;;;;;;;19.60;57.88;102284.50;5023766;28;20025;-72
2023/10/08 04:16:45;;;;;;;204.65;196.18;;;;;;;19.60;58.27;102276.28;5030338;28;20036;-72
2023/10/08 04:19:11;;;;;;;202.90;194.50;;;;;;;19.59;57.77;102280.94;5012543;28;20061;-72
2023/10/08 04:21:37;;;;;;;204.10;195.38;;;;;;;19.57;57.82;102277.63;5034360;28;20037;-72
2023/10/08 04:24:06;;;;;;;200.77;192.48;;;;;;;19.58;58.28;102297.63;5032587;28;20034;-72
2023/10/08 04:26:32;;;;;;;199.57;190.90;;;;;;;19.56;58.16;102297.91;5032951;28;20075;-72
2023/10/08 04:29:02;;;;;;;202.30;193.60;;;;;;;19.55;57.92;102299.00;5032712;28;20053;-72
2023/10/08 04:31:43;;;;;;;201.02;192.27;;;;;;;19.56;57.90;102294.38;5038038;28;20064;-72
2023/10/08 04:34:15;;;;;;;199.57;191.05;;;;;;;19.55;58.18;102288.03;5036029;28;20053;-72
2023/10/08 04:36:46;;;;;;;199.68;191.18;;;;;;;19.54;58.08;102294.63;5029751;28;20037;-72
2023/10/08 04:39:14;;;;;;;201.63;193.13;;;;;;;19.52;57.78;102285.00;5025943;28;20120;-72
2023/10/08 04:41:43;;;;;;;198.55;190.43;;;;;;;19.53;58.03;102287.50;5026991;28;20025;-72
2023/10/08 04:44:15;;;;;;;198.07;190.00;;;;;;;19.52;58.16;102301.44;5030012;28;20037;-72
2023/10/08 04:46:49;;;;;;;194.80;186.45;;;;;;;19.50;57.68;102311.84;5030009;28;20029;-72
2023/10/08 04:49:27;;;;;;;198.02;189.85;;;;;;;19.50;57.93;102314.59;5020651;28;20457;-72
2023/10/08 04:51:57;;;;;;;195.35;187.38;;;;;;;19.48;58.00;102316.75;5017138;28;20033;-72
2023/10/08 04:54:30;;;;;;;199.07;190.52;;;;;;;19.46;58.07;102320.59;5025723;28;20064;-72
2023/10/08 04:57:00;;;;;;;198.40;189.90;;;;;;;19.46;57.98;102306.91;5020417;28;20025;-72
2023/10/08 04:59:34;;;;;;;193.18;185.32;;;;;;;19.45;57.88;102310.75;5023182;28;20038;-72
2023/10/08 05:07:21;;;;;;;;;;;;;;;19.41;58.19;102322.50;5029997;28;20048;-72
2023/10/08 05:10:10;;;;;;;191.70;183.40;;;;;;;19.40;58.34;102315.34;5025850;28;19917;-72
2023/10/08 05:12:47;;;;;;;194.30;185.90;;;;;;;19.38;58.24;102312.88;5031203;28;20496;-72
2023/10/08 05:28:30;;;;;;;193.50;185.00;;;;;;;19.32;58.09;102330.38;5046410;28;20068;-72
2023/10/08 05:31:36;;;;;;;190.52;182.60;;;;;;;19.30;58.16;102338.00;5045888;28;20469;-70
2023/10/08 05:37:11;;;;;;;188.90;181.00;;;;;;;19.28;58.33;102364.88;5024376;28;20390;-70
2023/10/08 05:42:20;;;;;;;191.75;183.75;;;;;;;19.27;57.93;102365.13;5027672;28;20045;-71
2023/10/08 05:44:50;;;;;;;192.15;184.13;;;;;;;19.26;58.05;102367.03;5026777;28;20462;-70
2023/10/08 05:50:09;;;;;;;191.57;182.38;;;;;;;19.25;58.12;102351.69;5011703;28;20067;-70
2023/10/08 05:52:50;;;;;;;189.20;181.10;;;;;;;19.22;58.19;102344.81;5030151;28;20441;-71
2023/10/08 05:55:26;;;;;;;194.63;186.55;;;;;;;19.22;58.48;102347.53;5019963;28;20026;-71
2023/10/08 05:58:13;;;;;;;190.23;182.23;;;;;;;19.21;58.41;102347.81;5035840;28;20036;-72
2023/10/08 06:03:36;;;;;;;189.70;181.60;;;;;;;19.17;58.61;102336.56;5026443;28;20092;-72
2023/10/08 06:08:52;;;;;;;186.32;178.50;;;;;;;19.14;58.26;102323.38;5019453;28;20049;-71
2023/10/08 06:14:16;;;;;;;189.77;181.38;;;;;;;19.12;58.58;102300.91;5022486;28;20056;-72
2023/10/08 06:16:44;;;;;;;188.90;180.50;;;;;;;19.12;58.59;102302.81;5020365;28;20045;-73
2023/10/08 06:19:15;;;;;;;191.15;183.05;;;;;;;19.11;58.24;102303.91;5026686;28;20037;-71
2023/10/08 06:21:42;;;;;;;194.32;186.25;;;;;;;19.10;58.43;102305.00;5011267;28;20133;-70
2023/10/08 06:24:09;;;;;;;192.93;184.65;;;;;;;19.10;58.36;102313.22;5024163;28;20059;-73
2023/10/08 06:27:04;;;;;;;188.25;180.10;;;;;;;19.09;58.74;102320.59;5032185;28;20029;-70
2023/10/08 06:29:27;;;;;;;189.63;180.90;;;;;;;19.08;58.38;102329.09;5026767;28;20045;-71
2023/10/08 06:31:55;;;;;;;192.32;183.77;;;;;;;19.08;58.26;102334.59;5038447;28;20075;-72
2023/10/08 06:34:21;;;;;;;188.77;180.77;;;;;;;19.08;58.47;102346.34;5026047;28;20049;-70
2023/10/08 06:36:54;;;;;;;189.93;181.48;;;;;;;19.07;58.35;102332.91;5020820;28;20469;-72
2023/10/08 06:39:33;;;;;;;187.15;179.00;;;;;;;19.07;58.27;102343.88;5034284;28;20033;-71
2023/10/08 06:41:59;;;;;;;187.65;179.88;;;;;;;19.06;58.34;102345.78;5026904;28;20540;-71
2023/10/08 06:44:26;;;;;;;188.13;179.73;;;;;;;19.05;58.61;102346.03;5013795;28;20104;-71
2023/10/08 06:46:54;;;;;;;188.07;179.98;;;;;;;19.03;58.48;102341.66;5018980;28;20117;-71
2023/10/08 06:49:23;;;;;;;182.10;174.10;;;;;;;19.02;58.61;102348.22;5030244;28;20051;-71
2023/10/08 06:51:50;;;;;;;186.48;178.27;;;;;;;19.02;58.24;102339.16;5028727;28;20465;-71
2023/10/08 06:54:17;;;;;;;183.00;175.18;;;;;;;19.02;58.69;102358.34;5020943;28;20037;-70
2023/10/08 06:56:46;;;;;;;185.85;177.88;;;;;;;19.01;58.73;102357.50;5022215;28;20034;-70
2023/10/08 06:59:16;;;;;;;186.68;178.63;;;;;;;19.00;58.67;102355.88;5027947;28;20061;-71
2023/10/08 07:01:45;;;;;;;191.63;183.57;;;;;;;19.00;58.31;102355.06;5029165;28;20042;-74
2023/10/08 07:04:12;;;;;;;188.10;179.93;;;;;;;18.98;58.34;102369.00;5029141;28;20533;-73
2023/10/08 07:06:46;;;;;;;183.95;175.95;;;;;;;18.98;58.46;102358.03;5028516;28;20045;-70
2023/10/08 07:11:56;;;;;;;188.00;179.43;;;;;;;18.96;58.54;102360.22;5027045;28;20041;-72
2023/10/08 07:14:26;;;;;;;191.52;182.50;;;;;;;18.96;58.66;102364.88;5027022;28;20045;-73
2023/10/08 07:16:59;;;;;;;186.80;178.77;;;;;;;18.95;58.16;102375.00;5031886;28;20392;-72
2023/10/08 07:19:50;;;;;;;188.35;180.00;;;;;;;18.96;58.66;102387.59;5024679;28;20117;-72
2023/10/08 07:22:21;;;;;;;181.73;173.98;;;;;;;18.95;58.14;102383.22;5022431;28;20393;-73
2023/10/08 07:24:50;;;;;;;184.15;175.93;;;;;;;18.94;58.58;102378.81;5022245;28;20121;-73
2023/10/08 07:27:21;;;;;;;187.95;179.18;;;;;;;18.94;58.29;102377.97;5031285;28;20033;-73
2023/10/08 07:29:47;;;;;;;181.68;173.80;;;;;;;18.93;58.27;102377.16;5016578;28;20025;-72
2023/10/08 07:32:14;;;;;;;182.98;174.85;;;;;;;18.94;58.61;102383.47;5025371;28;20029;-73
2023/10/08 07:34:40;;;;;;;186.85;178.85;;;;;;;18.94;58.61;102395.22;5017262;28;20189;-71
2023/10/08 07:37:06;;;;;;;177.48;169.38;;;;;;;18.93;58.43;102390.03;5020800;28;20091;-72
2023/10/08 07:41:59;;;;;;;185.25;177.30;;;;;;;18.93;58.44;102393.59;5019975;28;20120;-71
2023/10/08 07:44:28;;;;;;;179.90;172.13;;;;;;;18.94;58.63;102389.75;5026162;28;20033;-71
2023/10/08 07:46:57;;;;;;;189.52;181.20;;;;;;;18.93;58.72;102396.34;5021726;28;20120;-71
2023/10/08 07:49:25;;;;;;;182.73;174.55;;;;;;;18.93;58.70;102399.06;5031808;28;20057;-73
2023/10/08 07:51:51;;;;;;;182.07;174.27;;;;;;;18.92;58.52;102400.13;5024828;28;20041;-71
2023/10/08 07:54:22;;;;;;;187.70;179.48;;;;;;;18.92;58.44;102402.88;5025196;28;20048;-71
2023/10/08 07:56:48;;;;;;;181.25;173.20;;;;;;;18.94;58.55;102394.41;5015046;28;20033;-71
2023/10/08 07:59:16;;;;;;;183.75;175.80;;;;;;;18.92;58.62;102397.41;5020699;28;20029;-71
2023/10/08 08:01:42;;;;;;;179.77;171.57;;;;;;;18.92;58.80;102397.41;5030104;28;20030;-72
2023/10/08 08:04:10;;;;;;;179.90;171.35;;;;;;;18.93;58.73;102401.81;5012548;28;20046;-72
2023/10/08 08:06:37;;;;;;;184.75;176.43;;;;;;;18.92;58.77;102408.34;5015300;28;20041;-72
2023/10/08 08:09:08;;;;;;;183.65;175.15;;;;;;;18.93;58.49;102417.41;5024812;28;20477;-71
2023/10/08 08:11:36;;;;;;;186.48;177.65;;;;;;;18.93;58.61;102426.44;5020056;28;20048;-72
2023/10/08 08:14:07;;;;;;;185.02;176.90;;;;;;;18.94;58.57;102424.53;5030131;28;20128;-72
2023/10/08 08:16:36;;;;;;;185.57;177.13;;;;;;;18.93;58.56;102440.13;5023479;28;20033;-73
2023/10/08 08:19:01;;;;;;;182.57;174.57;;;;;;;18.94;58.42;102432.75;5040486;28;20038;-72
2023/10/08 08:21:30;;;;;;;187.02;178.27;;;;;;;18.94;58.67;102436.31;5029455;28;20044;-72
2023/10/08 08:24:04;;;;;;;179.45;171.23;;;;;;;18.95;59.09;102442.59;5018655;28;20086;-71
2023/10/08 08:26:39;;;;;;;184.38;176.15;;;;;;;18.95;58.76;102445.34;5015168;28;20164;-73
2023/10/08 08:29:05;;;;;;;180.98;172.88;;;;;;;18.95;58.96;102443.47;5015591;28;20117;-73
2023/10/08 08:31:31;;;;;;;184.38;175.93;;;;;;;18.94;58.85;102452.72;5021228;28;20062;-73
2023/10/08 08:33:59;;;;;;;183.60;175.50;;;;;;;18.96;59.24;102458.78;5012822;28;20433;-73
2023/10/08 08:36:29;;;;;;;183.90;175.43;;;;;;;18.96;59.44;102463.44;5013322;28;20057;-72
2023/10/08 08:38:55;;;;;;;185.52;176.57;;;;;;;18.97;59.72;102462.34;5035628;28;20029;-72
2023/10/08 08:41:22;;;;;;;190.57;180.73;;;;;;;18.96;59.72;102461.53;5038073;28;20469;-74
2023/10/08 08:43:49;;;;;;;183.10;174.57;;;;;;;18.98;59.48;102466.75;5014031;28;20041;-72
2023/10/08 08:46:15;;;;;;;186.23;177.15;;;;;;;18.98;60.09;102469.50;5012096;28;20501;-73
2023/10/08 08:48:44;;;;;;;187.02;178.50;;;;;;;18.99;60.28;102468.41;5018874;28;20045;-72
2023/10/08 08:51:09;;;;;;;188.65;179.52;;;;;;;18.98;59.88;102470.31;5026552;28;20045;-72
2023/10/08 08:53:39;;;;;;;185.05;176.50;;;;;;;18.99;60.21;102474.69;5063526;28;20380;-72
2023/10/08 08:56:12;;;;;;;184.43;175.60;;;;;;;18.99;59.86;102468.41;5021711;28;20116;-72
2023/10/08 08:58:38;;;;;;;178.73;170.40;;;;;;;18.99;60.08;102473.88;5016479;28;20033;-72
2023/10/08 09:01:07;;;;;;;176.35;167.25;;;;;;;18.99;60.00;102474.69;5013700;28;20034;-72
2023/10/08 09:03:33;;;;;;;183.75;173.65;;;;;;;19.00;60.28;102478.28;5022355;28;20120;-72
2023/10/08 09:06:00;;;;;;;180.57;170.98;;;;;;;19.00;60.39;102470.06;5024885;28;20057;-72
2023/10/08 09:08:33;;;;;;;175.07;165.75;;;;;;;19.01;60.40;102466.25;5022659;28;20094;-72
2023/10/08 09:11:00;;;;;;;176.05;167.65;;;;;;;19.01;60.80;102472.53;5026487;28;20363;-72
2023/10/08 09:13:27;;;;;;;179.63;170.70;;;;;;;19.04;60.60;102465.72;5031149;28;20041;-71
2023/10/08 09:16:07;;;;;;;180.27;170.63;;;;;;;19.05;60.95;102461.06;5030403;28;20065;-73
2023/10/08 09:18:33;;;;;;;178.40;169.00;;;;;;;19.05;60.90;102466.53;5016367;28;20040;-73
2023/10/08 09:21:10;;;;;;;182.13;172.48;;;;;;;19.07;61.30;102467.13;5023791;28;20030;-73
2023/10/08 09:23:43;;;;;;;184.40;175.07;;;;;;;19.08;61.44;102466.88;5020002;28;20041;-72
2023/10/08 09:26:14;;;;;;;187.82;178.88;;;;;;;19.10;61.90;102472.91;5011655;28;20030;-73
2023/10/08 09:28:40;;;;;;;182.48;173.35;;;;;;;19.11;62.20;102468.25;5024752;28;20125;-73
2023/10/08 09:31:11;;;;;;;177.65;168.80;;;;;;;19.12;61.54;102475.38;5036255;28;20369;-73
2023/10/08 09:33:37;;;;;;;184.68;175.23;;;;;;;19.15;61.36;102483.94;5010850;28;20092;-72
2023/10/08 09:36:06;;;;;;;182.65;174.15;;;;;;;19.15;61.93;102483.06;5011404;28;20038;-73
2023/10/08 09:38:33;;;;;;;183.88;174.50;;;;;;;19.18;61.53;102488.88;5027892;28;20037;-73
2023/10/08 09:41:03;;;;;;;184.60;175.93;;;;;;;19.20;61.63;102491.34;5029672;28;20079;-72
2023/10/08 09:43:29;;;;;;;187.80;176.98;;;;;;;19.22;62.04;102489.19;5027591;28;20061;-72
2023/10/08 09:46:08;;;;;;;185.57;176.25;;;;;;;19.25;61.65;102491.41;5024310;28;20041;-71
2023/10/08 09:48:37;;;;;;;185.02;175.98;;;;;;;19.26;62.13;102482.09;5026791;28;20044;-71
2023/10/08 09:51:06;;;;;;;184.98;175.40;;;;;;;19.29;61.92;102475.28;5027634;28;20140;-71
2023/10/08 09:54:05;;;;;;;192.07;181.88;;;;;;;19.31;62.55;102465.72;5031715;28;20033;-72
2023/10/08 09:56:31;;;;;;;189.52;179.80;;;;;;;19.32;62.04;102464.63;5023823;28;20029;-72
2023/10/08 09:58:59;;;;;;;188.98;179.02;;;;;;;19.34;62.08;102456.16;5021744;28;20065;-72
2023/10/08 10:01:26;;;;;;;194.77;184.50;;;;;;;19.35;62.34;102452.31;5025922;28;20033;-72
2023/10/08 10:03:52;;;;;;;188.27;178.45;;;;;;;19.37;62.59;102452.88;5021204;28;20121;-72
2023/10/08 10:06:18;;;;;;;194.00;184.30;;;;;;;19.39;62.60;102450.72;5016027;28;20144;-73
2023/10/08 10:08:47;;;;;;;192.35;182.98;;;;;;;19.41;62.56;102445.81;5025711;28;20099;-72
2023/10/08 10:11:12;;;;;;;191.80;181.82;;;;;;;19.44;62.10;102454.31;5023829;28;20096;-72
2023/10/08 10:13:40;;;;;;;199.45;189.25;;;;;;;19.46;62.61;102454.06;5021605;28;20490;-71
2023/10/08 10:16:09;;;;;;;196.27;186.65;;;;;;;19.50;62.44;102459.84;5014707;28;20080;-73
2023/10/08 10:18:34;;;;;;;195.32;185.80;;;;;;;19.54;62.65;102477.44;5027684;28;20037;-72
2023/10/08 10:21:12;;;;;;;198.60;188.27;;;;;;;19.55;62.33;102482.63;5014319;28;20034;-72
2023/10/08 10:23:51;;;;;;;190.47;181.37;;;;;;;19.57;62.44;102482.38;5031321;28;20061;-71
2023/10/08 10:26:30;;;;;;;195.63;185.88;;;;;;;19.61;62.52;102475.31;5015443;28;20026;-71
2023/10/08 10:29:08;;;;;;;189.93;181.20;;;;;;;19.62;62.50;102472.28;5029095;28;20508;-73
2023/10/08 10:31:34;;;;;;;197.75;188.38;;;;;;;19.63;62.71;102471.22;5024510;28;20041;-72
2023/10/08 10:34:11;;;;;;;196.32;186.40;;;;;;;19.66;62.45;102478.09;5045151;28;20119;-72
2023/10/08 10:36:39;;;;;;;196.93;187.32;;;;;;;19.69;62.55;102474.03;5025274;28;20029;-71
2023/10/08 10:39:52;;;;;;;204.38;194.13;;;;;;;19.72;62.36;102470.75;5032044;28;20045;-72
2023/10/08 10:42:20;;;;;;;203.20;191.77;;;;;;;19.73;62.23;102465.03;5029409;28;20045;-70
2023/10/08 10:44:49;;;;;;;204.30;193.30;;;;;;;19.76;62.01;102466.41;5024957;28;20393;-72
2023/10/08 10:49:55;;;;;;;205.13;195.43;;;;;;;19.80;62.12;102460.13;5021066;28;20038;-72
2023/10/08 10:52:31;;;;;;;204.23;192.85;;;;;;;19.83;62.36;102450.53;5023960;28;20034;-72
2023/10/08 10:58:24;;;;;;;210.85;200.07;;;;;;;19.87;62.37;102457.97;5014700;28;20072;-71
2023/10/08 11:03:23;;;;;;;210.10;199.38;;;;;;;19.94;62.58;102462.44;5018165;28;20493;-73
2023/10/08 11:06:06;;;;;;;212.15;200.57;;;;;;;19.97;62.58;102459.97;5025923;28;20058;-73
2023/10/08 11:08:34;;;;;;;206.38;195.23;;;;;;;20.01;62.77;102468.50;5024399;28;20037;-73
2023/10/08 11:11:04;;;;;;;;;;;;;;;20.03;62.48;102472.63;5031880;28;20038;-73
2023/10/08 11:13:37;;;;;;;198.20;188.43;;;;;;;20.04;62.55;102468.78;5014068;28;19968;-73
2023/10/08 11:16:05;;;;;;;202.85;191.95;;;;;;;20.06;62.29;102465.78;5034622;28;20027;-72
2023/10/08 11:18:32;;;;;;;208.40;198.43;;;;;;;20.09;62.42;102471.56;5018847;28;20109;-72
2023/10/08 11:21:22;;;;;;;208.95;199.40;;;;;;;20.12;62.02;102472.97;5013119;28;20030;-72
2023/10/08 11:24:08;;;;;;;210.35;199.88;;;;;;;20.14;61.98;102472.69;5016831;28;20044;-71
2023/10/08 11:26:38;;;;;;;207.55;197.43;;;;;;;20.15;62.38;102464.19;5031607;28;20037;-73
2023/10/08 11:29:05;;;;;;;211.77;200.80;;;;;;;20.19;62.56;102467.25;5029084;28;20116;-73
2023/10/08 11:31:33;;;;;;;214.48;203.23;;;;;;;20.22;62.59;102458.47;5016850;28;20042;-72
2023/10/08 11:34:01;;;;;;;214.25;202.88;;;;;;;20.24;62.31;102459.03;5032870;28;20048;-72
2023/10/08 11:36:28;;;;;;;211.63;200.70;;;;;;;20.27;62.06;102466.72;5035300;28;20162;-72
2023/10/08 11:39:00;;;;;;;210.65;199.60;;;;;;;20.30;62.34;102463.44;5012456;28;20073;-72
2023/10/08 11:41:27;;;;;;;210.88;200.70;;;;;;;20.32;62.04;102458.53;5013756;28;20087;-74
2023/10/08 11:43:57;;;;;;;211.85;201.48;;;;;;;20.35;61.98;102455.25;5012439;28;20026;-73
2023/10/08 11:46:33;;;;;;;212.95;202.20;;;;;;;20.37;62.05;102450.31;5031835;28;20045;-71
2023/10/08 11:49:04;;;;;;;217.98;207.73;;;;;;;20.39;62.08;102439.91;5014780;28;20041;-72
2023/10/08 11:51:33;;;;;;;215.60;205.43;;;;;;;20.43;62.47;102442.94;5029061;28;20132;-72
2023/10/08 11:54:00;;;;;;;217.25;206.77;;;;;;;20.45;62.18;102436.06;5014402;28;20065;-72
2023/10/08 11:56:27;;;;;;;224.48;213.27;;;;;;;20.47;62.58;102438.56;5028917;28;20041;-72
2023/10/08 11:58:56;;;;;;;224.27;212.15;;;;;;;20.50;62.40;102424.28;5048129;28;20087;-72
2023/10/08 12:01:21;;;;;;;218.98;207.98;;;;;;;20.52;62.28;102422.13;5027271;28;20045;-72
2023/10/08 12:03:49;;;;;;;224.75;213.60;;;;;;;20.55;62.09;102429.84;5022609;28;20081;-72
2023/10/08 12:06:18;;;;;;;216.55;206.55;;;;;;;20.58;62.21;102425.72;5012466;28;20502;-72
2023/10/08 12:08:46;;;;;;;217.23;206.30;;;;;;;20.59;62.29;102428.22;5017892;28;20038;-72